Terminal Aerodrome Forecast
Issued by NWS El Paso, TX

Home | Current Version | Previous Version | Text Only | Print | Product List | Glossary On
Versions: 1 2 3 4 5 6 7 8 9 10 11 12
000
FTUS44 KEPZ 232320
TAFELP
TAF
KELP 232320Z 2400/2424 24015G25KT P6SM FEW250
     FM240800 28023G33KT P6SM FEW040
      TEMPO 2410/2413 28030G40KT
     FM241600 28015G22KT P6SM FEW040=

USA.gov is the U.S. government's official web portal to all federal, state and local government web resources and services.